Forside
METAR-TAF:

METAR-TAF

Lufthavne :

Albertus Airport

Freeport, Illinois, USA

Breddekreds: 42-14-47N, længdekreds: 089-34-56W, højde: 262 m

Aktuelle vejr

Denne rapport blev lavet for 28 minutter siden, kl. 04:15 UTC
Vind 22 kt fra sydøst med vindstød på up til 25 kt
Temperatur -3°C
Fugtighed 93%
Tryk 1019 hPa
Sigt: 6.4 km
Overskyet i en højde af 1000 ft
ukendt

METAR: KFEP 180415Z AUTO 14022G25KT 4SM UP OVC010 M03/M04 A3008 RMK AO2 T10301036

Tid: 22:43 (04:43 UTC)


TAF: fraværende

Vejrobservationer og prognoser fra mere end 4000 lufthavne (METAR og TAF).

De gule og røde prikker repræsenterer de meteorologiske stationer.

Flyt musen over at se navnet på stationen.

Så klik over at se vejr observationer og prognoser.

At skifte det kort: Klik på de grønne knapper med et sort kors for at zoome ind; på den grønne knap med en bindestreg for at zoome ud; eller på de grønne pile for tilstødende kort.


METAR-TAF: